createdAt,value
2023-04-17T00:03:53.072Z,34.61
2023-04-17T00:08:56.069Z,34.91
2023-04-17T00:13:58.490Z,35.58
2023-04-17T00:19:00.955Z,35.60
2023-04-17T00:24:03.400Z,35.70
2023-04-17T00:29:05.912Z,36.23
2023-04-17T00:34:08.360Z,36.32
2023-04-17T00:39:10.965Z,36.36
2023-04-17T00:44:13.490Z,36.58
2023-04-17T00:49:15.973Z,36.21
2023-04-17T00:54:19.507Z,35.99
2023-04-17T00:59:22.396Z,35.62
2023-04-17T01:04:24.943Z,35.25
2023-04-17T01:09:27.986Z,35.05
2023-04-17T01:14:30.271Z,34.88
2023-04-17T01:19:32.815Z,35.69
2023-04-17T01:24:35.273Z,36.70
2023-04-17T01:29:37.689Z,36.95
2023-04-17T01:34:40.340Z,37.54
2023-04-17T01:39:42.817Z,37.70
2023-04-17T01:44:45.303Z,37.79
2023-04-17T01:49:48.598Z,38.37
2023-04-17T01:54:51.001Z,38.50
2023-04-17T01:59:53.467Z,38.78
2023-04-17T02:04:55.929Z,39.09
2023-04-17T02:09:58.353Z,39.30
2023-04-17T02:15:01.575Z,39.30
2023-04-17T02:20:08.000Z,39.67
2023-04-17T02:25:10.390Z,39.46
2023-04-17T02:30:13.077Z,39.50
2023-04-17T02:35:15.732Z,39.17
2023-04-17T02:40:18.337Z,38.90
2023-04-17T02:45:20.909Z,38.85
2023-04-17T02:50:23.408Z,39.39
2023-04-17T02:55:48.655Z,39.26
2023-04-17T03:01:00.806Z,40.15
2023-04-17T03:06:04.762Z,39.49
2023-04-17T03:11:07.671Z,40.11
2023-04-17T03:16:10.322Z,40.60
2023-04-17T03:21:14.110Z,40.91
2023-04-17T03:26:16.460Z,41.17
2023-04-17T03:31:19.020Z,41.16
2023-04-17T03:36:21.667Z,41.67
2023-04-17T03:41:24.390Z,41.74
2023-04-17T03:46:27.050Z,42.27
2023-04-17T03:51:29.805Z,42.24
2023-04-17T03:56:37.388Z,42.00
2023-04-17T04:01:41.408Z,41.96
2023-04-17T04:06:54.793Z,41.81
2023-04-17T04:11:57.892Z,42.23
2023-04-17T04:17:00.982Z,42.38
2023-04-17T04:22:06.715Z,41.54
2023-04-17T04:27:24.592Z,40.60
2023-04-17T04:32:28.800Z,40.27
2023-04-17T04:37:32.875Z,40.04
2023-04-17T04:42:42.608Z,40.06
2023-04-17T04:47:51.067Z,40.18
2023-04-17T04:52:54.506Z,39.86
2023-04-17T04:58:10.436Z,39.56
2023-04-17T05:03:14.681Z,39.30
2023-04-17T05:08:17.463Z,39.28
2023-04-17T05:13:30.680Z,39.87
2023-04-17T05:18:33.746Z,39.08
2023-04-17T05:23:37.155Z,38.81
2023-04-17T05:28:41.315Z,38.97
2023-04-17T05:33:43.975Z,38.53
2023-04-17T05:38:48.584Z,39.12
2023-04-17T05:43:51.495Z,38.86
2023-04-17T05:48:56.082Z,38.95
2023-04-17T05:53:59.159Z,38.93
2023-04-17T05:59:01.922Z,38.93
2023-04-17T06:04:04.863Z,38.68
2023-04-17T06:09:09.644Z,38.57
2023-04-17T06:14:13.034Z,38.98
2023-04-17T06:19:16.483Z,38.84
2023-04-17T06:24:20.482Z,38.84
2023-04-17T06:29:24.035Z,38.88
2023-04-17T06:34:27.106Z,38.71
2023-04-17T06:39:32.076Z,38.91
2023-04-17T06:44:36.300Z,39.01
2023-04-17T06:49:38.647Z,38.99
2023-04-17T06:54:41.090Z,39.17
2023-04-17T06:59:43.422Z,38.56
2023-04-17T07:04:45.953Z,38.31
2023-04-17T07:09:48.597Z,38.27
2023-04-17T07:14:51.525Z,37.29
2023-04-17T07:19:53.914Z,36.87
2023-04-17T07:24:56.211Z,36.58
2023-04-17T07:30:01.642Z,36.25
2023-04-17T07:35:05.623Z,35.80
2023-04-17T07:40:10.051Z,35.24
2023-04-17T07:45:12.306Z,35.73
2023-04-17T07:50:14.700Z,35.57
2023-04-17T07:55:17.324Z,35.86
2023-04-17T08:00:19.927Z,35.22
2023-04-17T08:05:24.037Z,34.84
2023-04-17T08:10:30.078Z,34.81
2023-04-17T08:15:32.482Z,36.59
2023-04-17T08:20:34.783Z,36.03
2023-04-17T08:25:38.206Z,35.01
2023-04-17T08:30:40.511Z,35.43
2023-04-17T08:35:42.922Z,35.24
2023-04-17T08:40:49.508Z,34.06
2023-04-17T08:45:55.847Z,34.39
2023-04-17T08:50:58.588Z,33.86
2023-04-17T08:56:07.529Z,32.49
2023-04-17T09:01:18.020Z,31.80
2023-04-17T09:06:20.392Z,32.59
2023-04-17T09:11:22.781Z,32.35
2023-04-17T09:16:26.038Z,32.04
2023-04-17T09:21:29.450Z,31.64
2023-04-17T09:26:33.608Z,31.44
2023-04-17T09:31:37.886Z,31.00
2023-04-17T09:36:42.402Z,30.73
2023-04-17T09:41:45.213Z,30.49
2023-04-17T09:46:48.022Z,29.81
2023-04-17T09:51:51.116Z,30.26
2023-04-17T09:56:56.356Z,30.51
2023-04-17T10:01:58.923Z,30.16
2023-04-17T10:07:03.359Z,30.20
2023-04-17T10:12:06.292Z,30.05
2023-04-17T10:17:31.981Z,29.66
2023-04-17T10:22:35.125Z,29.39
2023-04-17T10:27:37.745Z,29.13
2023-04-17T10:32:45.986Z,28.58
2023-04-17T10:37:51.087Z,28.75
2023-04-17T10:43:20.188Z,28.55
2023-04-17T10:48:24.584Z,28.54
2023-04-17T10:53:45.386Z,28.89
2023-04-17T10:58:59.365Z,28.59
2023-04-17T11:04:01.799Z,28.98
2023-04-17T11:09:08.431Z,28.71
2023-04-17T11:14:18.576Z,28.88
2023-04-17T11:19:23.384Z,28.77
2023-04-17T11:24:30.855Z,28.61
2023-04-17T11:29:33.430Z,28.93
2023-04-17T11:34:37.516Z,28.71
2023-04-17T11:39:42.774Z,28.49
2023-04-17T11:44:45.207Z,28.70
2023-04-17T11:49:47.569Z,28.47
2023-04-17T11:54:58.020Z,28.58
2023-04-17T12:00:00.297Z,28.39
2023-04-17T12:05:18.662Z,28.75
2023-04-17T12:10:24.238Z,29.19
2023-04-17T12:15:28.413Z,28.39
2023-04-17T12:20:30.817Z,28.72
2023-04-17T12:25:34.182Z,28.62
2023-04-17T12:30:40.049Z,28.99
2023-04-17T12:35:42.394Z,28.88
2023-04-17T12:40:45.930Z,28.98
2023-04-17T12:45:48.672Z,29.35
2023-04-17T12:50:51.201Z,29.52
2023-04-17T12:55:53.584Z,29.62
2023-04-17T13:00:56.069Z,29.76
2023-04-17T13:05:58.504Z,30.41
2023-04-17T13:11:03.984Z,30.16
2023-04-17T13:16:06.759Z,29.96
2023-04-17T13:21:10.324Z,30.38
2023-04-17T13:26:12.722Z,30.44
2023-04-17T13:31:15.107Z,30.22
2023-04-17T13:36:17.500Z,30.54
2023-04-17T13:41:19.931Z,30.90
2023-04-17T13:46:22.553Z,30.98
2023-04-17T13:51:24.916Z,30.75
2023-04-17T13:56:27.713Z,31.26
2023-04-17T14:01:30.172Z,31.03
2023-04-17T14:06:34.079Z,31.33
2023-04-17T14:11:36.464Z,31.36
2023-04-17T14:16:40.277Z,31.34
2023-04-17T14:21:43.215Z,31.36
2023-04-17T14:26:45.680Z,31.34
2023-04-17T14:31:48.224Z,31.59
2023-04-17T14:36:50.832Z,31.70
2023-04-17T14:41:53.327Z,31.50
2023-04-17T14:46:57.146Z,31.71
2023-04-17T14:51:59.621Z,31.45
2023-04-17T14:57:02.084Z,31.47
2023-04-17T15:02:07.566Z,31.72
2023-04-17T15:07:10.095Z,32.47
2023-04-17T15:12:12.521Z,32.34
2023-04-17T15:17:15.106Z,32.58
2023-04-17T15:22:17.658Z,33.07
2023-04-17T15:27:20.458Z,32.79
2023-04-17T15:32:23.057Z,32.89
2023-04-17T15:37:25.564Z,32.91
2023-04-17T15:42:28.235Z,33.06
2023-04-17T15:47:33.002Z,33.04
2023-04-17T15:52:35.449Z,33.44
2023-04-17T15:57:39.316Z,33.82
2023-04-17T16:02:42.673Z,33.76
2023-04-17T16:07:46.053Z,34.36
2023-04-17T16:12:48.440Z,34.26
2023-04-17T16:17:51.092Z,34.71
2023-04-17T16:22:53.631Z,35.07
2023-04-17T16:27:56.210Z,34.97
2023-04-17T16:32:58.819Z,35.41
2023-04-17T16:38:02.074Z,35.59
2023-04-17T16:43:04.497Z,35.86
2023-04-17T16:48:09.345Z,35.79
2023-04-17T16:53:11.970Z,36.01
2023-04-17T16:58:14.474Z,35.99
2023-04-17T17:03:18.199Z,36.42
2023-04-17T17:08:20.601Z,36.44
2023-04-17T17:13:23.669Z,36.57
2023-04-17T17:18:26.451Z,36.80
2023-04-17T17:23:28.858Z,36.90
2023-04-17T17:28:31.395Z,37.49
2023-04-17T17:33:34.685Z,37.91
2023-04-17T17:38:37.181Z,37.91
2023-04-17T17:43:39.539Z,38.30
2023-04-17T17:48:42.108Z,38.43
2023-04-17T17:53:44.430Z,38.64
2023-04-17T17:58:46.899Z,38.96
2023-04-17T18:03:49.923Z,38.78
2023-04-17T18:08:53.304Z,39.10
2023-04-17T18:13:55.680Z,39.42
2023-04-17T18:19:00.158Z,39.58
2023-04-17T18:24:02.524Z,39.57
2023-04-17T18:29:05.136Z,39.67
2023-04-17T18:34:07.808Z,39.82
2023-04-17T18:39:10.399Z,39.79
2023-04-17T18:44:15.108Z,40.40
2023-04-17T18:49:17.620Z,40.31
2023-04-17T18:54:22.306Z,40.68
2023-04-17T18:59:26.547Z,40.49
2023-04-17T19:04:30.832Z,40.73
2023-04-17T19:09:33.249Z,40.63
2023-04-17T19:14:35.652Z,41.16
2023-04-17T19:19:38.391Z,41.73
2023-04-17T19:24:53.175Z,42.99
2023-04-17T19:29:57.185Z,42.73
2023-04-17T19:35:00.047Z,42.75
2023-04-17T19:40:14.255Z,43.20
2023-04-17T19:45:21.830Z,42.66
2023-04-17T19:50:27.926Z,43.43
2023-04-17T19:55:30.293Z,42.71
2023-04-17T20:00:32.967Z,42.96
2023-04-17T20:05:36.086Z,43.20
2023-04-17T20:10:38.666Z,43.78
2023-04-17T20:15:41.775Z,44.43
2023-04-17T20:20:44.223Z,44.36
2023-04-17T20:25:46.936Z,44.89
2023-04-17T20:30:49.834Z,45.24
2023-04-17T20:35:52.093Z,45.48
2023-04-17T20:40:54.435Z,45.62
2023-04-17T20:45:56.805Z,45.85
2023-04-17T20:51:02.371Z,46.51
2023-04-17T20:56:04.997Z,45.94
2023-04-17T21:01:07.368Z,46.14
2023-04-17T21:06:09.961Z,46.51
2023-04-17T21:11:12.303Z,46.34
2023-04-17T21:16:14.858Z,46.59
2023-04-17T21:21:17.266Z,47.12
2023-04-17T21:26:19.843Z,47.39
2023-04-17T21:31:22.185Z,47.73
2023-04-17T21:36:25.261Z,48.21
2023-04-17T21:41:27.580Z,48.21
2023-04-17T21:46:29.998Z,48.66
2023-04-17T21:51:32.384Z,48.79
2023-04-17T21:56:34.760Z,49.31
2023-04-17T22:01:37.313Z,49.33
2023-04-17T22:06:39.873Z,49.51
2023-04-17T22:11:42.142Z,49.70
2023-04-17T22:16:44.626Z,49.60
2023-04-17T22:21:46.945Z,49.83
2023-04-17T22:26:49.324Z,49.97
2023-04-17T22:31:51.717Z,50.02
2023-04-17T22:36:54.211Z,50.32
2023-04-17T22:41:57.623Z,50.42
2023-04-17T22:47:00.955Z,50.55
2023-04-17T22:52:03.390Z,50.80
2023-04-17T22:57:05.881Z,50.88
2023-04-17T23:02:08.473Z,50.92
2023-04-17T23:07:11.022Z,51.22
2023-04-17T23:12:13.393Z,51.20
2023-04-17T23:17:15.707Z,51.60
2023-04-17T23:22:18.051Z,51.78
2023-04-17T23:27:20.651Z,51.90
2023-04-17T23:32:25.735Z,52.02
2023-04-17T23:37:28.197Z,52.25
2023-04-17T23:42:31.204Z,52.58
2023-04-17T23:47:33.759Z,52.46
2023-04-17T23:52:36.186Z,52.86
2023-04-17T23:57:38.840Z,53.19
